createdAt,value
2022-09-10T00:02:02.038Z,14.80
2022-09-10T00:04:28.802Z,14.80
2022-09-10T00:06:56.363Z,14.90
2022-09-10T00:09:23.404Z,14.80
2022-09-10T00:11:50.076Z,14.80
2022-09-10T00:14:21.112Z,14.70
2022-09-10T00:16:48.485Z,14.70
2022-09-10T00:19:15.659Z,14.60
2022-09-10T00:21:44.396Z,14.60
2022-09-10T00:24:11.180Z,14.50
2022-09-10T00:26:39.598Z,14.60
2022-09-10T00:29:09.108Z,14.50
2022-09-10T00:31:36.108Z,14.60
2022-09-10T00:34:03.711Z,14.60
2022-09-10T00:36:37.337Z,14.50
2022-09-10T00:39:09.595Z,14.50
2022-09-10T00:41:39.237Z,14.50
2022-09-10T00:44:28.097Z,14.60
2022-09-10T00:46:56.325Z,14.60
2022-09-10T00:49:36.411Z,14.60
2022-09-10T00:52:03.834Z,14.60
2022-09-10T00:54:33.739Z,14.50
2022-09-10T00:57:05.728Z,14.60
2022-09-10T00:59:33.199Z,14.50
2022-09-10T01:02:00.238Z,14.60
2022-09-10T01:04:32.372Z,14.60
2022-09-10T01:07:00.955Z,14.60
2022-09-10T01:09:28.893Z,14.50
2022-09-10T01:12:13.165Z,14.50
2022-09-10T01:15:18.207Z,14.60
2022-09-10T01:18:09.205Z,14.50
2022-09-10T01:21:05.119Z,14.50
2022-09-10T01:23:50.343Z,14.50
2022-09-10T01:26:43.259Z,14.50
2022-09-10T01:29:16.032Z,14.40
2022-09-10T01:31:53.644Z,14.40
2022-09-10T01:34:32.854Z,14.40
2022-09-10T01:37:07.953Z,14.30
2022-09-10T01:39:35.165Z,14.40
2022-09-10T01:42:01.981Z,14.30
2022-09-10T01:44:47.312Z,14.30
2022-09-10T01:47:44.903Z,14.40
2022-09-10T01:50:35.497Z,14.40
2022-09-10T01:53:20.862Z,14.30
2022-09-10T01:56:29.511Z,14.30
2022-09-10T01:59:03.757Z,14.30
2022-09-10T02:01:40.554Z,14.30
2022-09-10T02:04:10.164Z,14.20
2022-09-10T02:06:40.913Z,14.30
2022-09-10T02:09:09.091Z,14.20
2022-09-10T02:11:51.918Z,14.30
2022-09-10T02:14:21.741Z,14.20
2022-09-10T02:16:54.243Z,14.10
2022-09-10T02:19:21.263Z,14.20
2022-09-10T02:21:48.170Z,14.20
2022-09-10T02:24:15.292Z,14.20
2022-09-10T02:26:44.031Z,14.20
2022-09-10T02:29:13.755Z,14.20
2022-09-10T02:31:41.188Z,14.20
2022-09-10T02:34:08.319Z,14.20
2022-09-10T02:36:35.813Z,14.10
2022-09-10T02:39:04.366Z,14.10
2022-09-10T02:41:34.837Z,14.10
2022-09-10T02:44:02.412Z,14.10
2022-09-10T02:46:29.602Z,14.20
2022-09-10T02:48:56.679Z,14.10
2022-09-10T02:51:23.825Z,14.20
2022-09-10T02:53:50.670Z,14.20
2022-09-10T02:56:19.524Z,14.10
2022-09-10T02:58:46.351Z,14.20
2022-09-10T03:01:15.754Z,14.00
2022-09-10T03:03:42.962Z,14.00
2022-09-10T03:06:10.147Z,14.00
2022-09-10T03:08:36.969Z,13.90
2022-09-10T03:11:05.006Z,13.90
2022-09-10T03:13:31.721Z,13.90
2022-09-10T03:15:59.009Z,13.90
2022-09-10T03:18:27.357Z,13.90
2022-09-10T03:20:54.267Z,13.90
2022-09-10T03:23:20.974Z,13.90
2022-09-10T03:25:49.825Z,13.90
2022-09-10T03:28:16.712Z,14.00
2022-09-10T03:30:43.483Z,14.00
2022-09-10T03:33:11.779Z,14.00
2022-09-10T03:35:38.753Z,14.00
2022-09-10T03:38:05.838Z,13.90
2022-09-10T03:40:33.099Z,13.90
2022-09-10T03:43:00.965Z,13.90
2022-09-10T03:45:28.640Z,13.90
2022-09-10T03:47:55.374Z,13.90
2022-09-10T03:50:22.348Z,13.90
2022-09-10T03:52:49.181Z,13.70
2022-09-10T03:55:16.222Z,13.70
2022-09-10T03:57:42.874Z,13.80
2022-09-10T04:00:12.729Z,13.70
2022-09-10T04:02:41.581Z,13.80
2022-09-10T04:05:09.058Z,13.70
2022-09-10T04:07:36.776Z,13.70
2022-09-10T04:10:03.955Z,13.80
2022-09-10T04:12:30.649Z,13.80
2022-09-10T04:14:57.492Z,13.80
2022-09-10T04:17:25.390Z,13.80
2022-09-10T04:19:52.039Z,13.90
2022-09-10T04:22:18.772Z,13.90
2022-09-10T04:24:45.562Z,13.80
2022-09-10T04:27:12.248Z,13.80
2022-09-10T04:29:38.936Z,13.90
2022-09-10T04:32:05.707Z,13.90
2022-09-10T04:34:32.366Z,13.90
2022-09-10T04:36:59.001Z,13.90
2022-09-10T04:39:25.655Z,13.90
2022-09-10T04:41:52.306Z,13.80
2022-09-10T04:44:20.071Z,13.80
2022-09-10T04:46:47.869Z,13.80
2022-09-10T04:49:14.511Z,13.80
2022-09-10T04:51:41.233Z,13.80
2022-09-10T04:54:07.908Z,13.80
2022-09-10T04:56:35.063Z,13.80
2022-09-10T04:59:01.742Z,13.90
2022-09-10T05:01:28.947Z,13.90
2022-09-10T05:03:55.598Z,13.90
2022-09-10T05:06:23.280Z,13.90
2022-09-10T05:08:50.769Z,14.00
2022-09-10T05:11:19.639Z,14.00
2022-09-10T05:13:46.717Z,14.00
2022-09-10T05:16:13.601Z,14.10
2022-09-10T05:18:40.406Z,14.20
2022-09-10T05:21:07.114Z,14.20
2022-09-10T05:23:34.016Z,14.20
2022-09-10T05:26:00.650Z,14.20
2022-09-10T05:28:27.467Z,14.30
2022-09-10T05:30:54.132Z,14.30
2022-09-10T05:33:21.403Z,14.30
2022-09-10T05:35:51.729Z,14.40
2022-09-10T05:38:19.125Z,14.40
2022-09-10T05:40:45.797Z,14.40
2022-09-10T05:43:12.710Z,14.40
2022-09-10T05:45:39.390Z,14.40
2022-09-10T05:48:06.296Z,14.40
2022-09-10T05:50:33.103Z,14.30
2022-09-10T05:53:00.803Z,14.20
2022-09-10T05:55:27.501Z,14.30
2022-09-10T05:57:54.171Z,14.30
2022-09-10T06:00:20.818Z,14.20
2022-09-10T06:02:48.262Z,14.20
2022-09-10T06:05:15.256Z,14.10
2022-09-10T06:07:41.950Z,14.10
2022-09-10T06:10:09.091Z,14.20
2022-09-10T06:12:35.994Z,14.20
2022-09-10T06:15:03.729Z,14.20
2022-09-10T06:17:30.493Z,14.30
2022-09-10T06:19:57.115Z,14.30
2022-09-10T06:22:23.830Z,14.40
2022-09-10T06:24:50.886Z,14.50
2022-09-10T06:27:17.515Z,14.40
2022-09-10T06:29:44.202Z,14.50
2022-09-10T06:32:10.920Z,14.40
2022-09-10T06:34:37.667Z,14.50
2022-09-10T06:37:05.252Z,14.50
2022-09-10T06:39:32.345Z,14.50
2022-09-10T06:41:59.521Z,14.50
2022-09-10T06:44:26.307Z,14.50
2022-09-10T06:47:30.783Z,14.50
2022-09-10T06:49:43.299Z,14.50
2022-09-10T06:52:11.595Z,14.60
2022-09-10T06:54:38.212Z,14.60
2022-09-10T06:57:05.113Z,14.70
2022-09-10T06:59:31.755Z,14.70
2022-09-10T07:01:58.459Z,14.70
2022-09-10T07:04:25.117Z,14.60
2022-09-10T07:06:51.995Z,14.60
2022-09-10T07:09:18.656Z,14.60
2022-09-10T07:11:45.298Z,14.50
2022-09-10T07:14:13.017Z,14.50
2022-09-10T07:16:44.534Z,14.50
2022-09-10T07:19:17.458Z,14.60
2022-09-10T07:21:44.810Z,14.60
2022-09-10T07:24:12.453Z,14.70
2022-09-10T07:26:39.231Z,14.70
2022-09-10T07:29:06.608Z,14.80
2022-09-10T07:31:35.241Z,14.80
2022-09-10T07:34:03.195Z,14.80
2022-09-10T07:36:30.187Z,14.80
2022-09-10T07:38:58.920Z,14.80
2022-09-10T07:41:30.049Z,14.80
2022-09-10T07:43:57.169Z,14.80
2022-09-10T07:46:25.671Z,14.80
2022-09-10T07:48:57.932Z,14.80
2022-09-10T07:51:26.640Z,14.80
2022-09-10T07:53:55.166Z,14.60
2022-09-10T07:56:25.242Z,14.50
2022-09-10T07:58:53.915Z,14.40
2022-09-10T08:01:21.251Z,14.40
2022-09-10T08:03:48.355Z,14.30
2022-09-10T08:06:16.058Z,14.20
2022-09-10T08:08:43.343Z,14.20
2022-09-10T08:11:12.872Z,14.20
2022-09-10T08:13:41.544Z,14.30
2022-09-10T08:16:14.204Z,14.40
2022-09-10T08:18:41.080Z,14.30
2022-09-10T08:21:08.762Z,14.30
2022-09-10T08:23:36.713Z,14.20
2022-09-10T08:26:05.281Z,14.10
2022-09-10T08:28:32.202Z,14.10
2022-09-10T08:31:08.186Z,14.20
2022-09-10T08:33:36.537Z,14.30
2022-09-10T08:36:04.780Z,14.30
2022-09-10T08:38:36.954Z,14.40
2022-09-10T08:41:13.369Z,14.40
2022-09-10T08:43:57.912Z,14.40
2022-09-10T08:46:32.124Z,14.40
2022-09-10T08:49:14.463Z,14.40
2022-09-10T08:51:48.155Z,14.40
2022-09-10T08:54:22.995Z,14.40
2022-09-10T08:56:50.735Z,14.40
2022-09-10T08:59:39.648Z,14.40
2022-09-10T09:02:47.371Z,14.40
2022-09-10T09:05:20.242Z,14.40
2022-09-10T09:07:48.352Z,14.40
2022-09-10T09:10:41.192Z,14.30
2022-09-10T09:13:26.436Z,14.30
2022-09-10T09:16:20.813Z,14.30
2022-09-10T09:19:14.793Z,14.30
2022-09-10T09:21:52.491Z,14.20
2022-09-10T09:24:34.815Z,14.20
2022-09-10T09:27:10.134Z,14.30
2022-09-10T09:30:01.754Z,14.10
2022-09-10T09:32:34.033Z,14.20
2022-09-10T09:35:00.734Z,14.10
2022-09-10T09:37:31.184Z,14.10
2022-09-10T09:40:12.807Z,14.10
2022-09-10T09:43:02.496Z,14.10
2022-09-10T09:45:43.388Z,14.20
2022-09-10T09:48:15.909Z,14.30
2022-09-10T09:50:46.512Z,14.30
2022-09-10T09:53:19.872Z,14.30
2022-09-10T09:55:58.465Z,14.30
2022-09-10T09:58:26.288Z,14.30
2022-09-10T10:01:15.467Z,14.30
2022-09-10T10:03:53.400Z,14.30
2022-09-10T10:06:31.029Z,14.40
2022-09-10T10:09:00.809Z,14.40
2022-09-10T10:11:47.524Z,14.40
2022-09-10T10:14:20.267Z,14.50
2022-09-10T10:16:49.093Z,14.50
2022-09-10T10:19:40.012Z,14.60
2022-09-10T10:22:18.676Z,14.60
2022-09-10T10:24:48.079Z,14.70
2022-09-10T10:27:35.564Z,14.70
2022-09-10T10:30:17.278Z,14.70
2022-09-10T10:32:56.178Z,14.80
2022-09-10T10:35:47.878Z,14.80
2022-09-10T10:38:40.533Z,14.90
2022-09-10T10:41:25.710Z,15.00
2022-09-10T10:44:25.023Z,15.00
2022-09-10T10:47:34.084Z,15.10
2022-09-10T10:50:15.965Z,15.00
2022-09-10T10:52:53.311Z,15.10
2022-09-10T10:55:40.088Z,15.00
2022-09-10T10:58:32.988Z,15.10
2022-09-10T11:01:23.894Z,15.20
2022-09-10T11:04:09.603Z,15.20
2022-09-10T11:06:45.173Z,15.20
2022-09-10T11:09:26.058Z,15.30
2022-09-10T11:12:14.400Z,15.30
2022-09-10T11:14:51.571Z,15.30
2022-09-10T11:17:27.220Z,15.30
2022-09-10T11:20:30.214Z,15.30
2022-09-10T11:23:14.289Z,15.30
2022-09-10T11:25:57.965Z,15.40
2022-09-10T11:28:54.312Z,15.40
2022-09-10T11:31:30.629Z,15.40
2022-09-10T11:34:06.891Z,15.50
2022-09-10T11:37:12.573Z,15.50
2022-09-10T11:39:45.355Z,15.50
2022-09-10T11:42:25.512Z,15.50
2022-09-10T11:45:02.946Z,15.50
2022-09-10T11:47:46.153Z,15.50
2022-09-10T11:50:25.276Z,15.40
2022-09-10T11:52:53.581Z,15.40
2022-09-10T11:55:22.711Z,15.50
2022-09-10T11:58:12.573Z,15.40
2022-09-10T12:00:54.580Z,15.50
2022-09-10T12:03:50.354Z,15.40
2022-09-10T12:06:26.962Z,15.40
2022-09-10T12:09:08.503Z,15.40
2022-09-10T12:11:40.338Z,15.40
2022-09-10T12:14:19.626Z,15.40
2022-09-10T12:17:08.740Z,15.40
2022-09-10T12:19:38.989Z,15.30
2022-09-10T12:22:17.019Z,15.30
2022-09-10T12:24:55.681Z,15.30
2022-09-10T12:27:44.209Z,15.30
2022-09-10T12:30:33.631Z,15.40
2022-09-10T12:33:17.302Z,15.40
2022-09-10T12:35:47.910Z,15.30
2022-09-10T12:38:42.918Z,15.40
2022-09-10T12:41:24.584Z,15.40
2022-09-10T12:43:56.139Z,15.40
2022-09-10T12:46:25.659Z,15.40
2022-09-10T12:48:55.539Z,15.40
2022-09-10T12:51:37.392Z,15.40
2022-09-10T12:54:04.050Z,15.50
2022-09-10T12:56:48.773Z,15.40
2022-09-10T12:59:41.737Z,15.50
2022-09-10T13:02:21.909Z,15.50
2022-09-10T13:04:58.422Z,15.50
2022-09-10T13:07:37.679Z,15.50
2022-09-10T13:10:27.124Z,15.50
2022-09-10T13:12:58.594Z,15.40
2022-09-10T13:15:32.019Z,15.40
2022-09-10T13:17:59.851Z,15.40
2022-09-10T13:20:26.454Z,15.40
2022-09-10T13:23:04.509Z,15.40
2022-09-10T13:25:34.912Z,15.40
2022-09-10T13:28:02.631Z,15.40
2022-09-10T13:30:31.193Z,15.40
2022-09-10T13:33:01.041Z,15.40
2022-09-10T13:35:33.641Z,15.40
2022-09-10T13:38:37.597Z,15.50
2022-09-10T13:41:29.673Z,15.50
2022-09-10T13:44:38.552Z,15.50
2022-09-10T13:47:16.967Z,15.60
2022-09-10T13:49:56.610Z,15.60
2022-09-10T13:52:29.360Z,15.60
2022-09-10T13:54:57.636Z,15.60
2022-09-10T13:57:33.857Z,15.60
2022-09-10T14:00:07.726Z,15.60
2022-09-10T14:02:56.280Z,15.50
2022-09-10T14:05:42.239Z,15.50
2022-09-10T14:08:44.977Z,15.60
2022-09-10T14:11:24.121Z,15.60
2022-09-10T14:13:56.237Z,15.60
2022-09-10T14:16:30.855Z,15.60
2022-09-10T14:19:04.270Z,15.70
2022-09-10T14:21:31.359Z,15.80
2022-09-10T14:23:59.391Z,15.80
2022-09-10T14:26:31.341Z,15.90
2022-09-10T14:28:59.785Z,16.00
2022-09-10T14:31:26.621Z,16.00
2022-09-10T14:34:15.437Z,16.00
2022-09-10T14:36:43.514Z,16.00
2022-09-10T14:39:37.981Z,16.00
2022-09-10T14:42:12.191Z,16.00
2022-09-10T14:44:49.858Z,16.00
2022-09-10T14:47:28.997Z,16.00
2022-09-10T14:50:27.844Z,16.10
2022-09-10T14:52:56.258Z,16.10
2022-09-10T14:55:25.580Z,16.10
2022-09-10T14:57:55.528Z,16.10
2022-09-10T15:00:28.753Z,16.10
2022-09-10T15:02:58.609Z,16.10
2022-09-10T15:05:27.879Z,16.10
2022-09-10T15:07:56.115Z,16.20
2022-09-10T15:10:22.943Z,16.20
2022-09-10T15:12:52.218Z,16.20
2022-09-10T15:15:21.613Z,16.10
2022-09-10T15:17:48.631Z,16.10
2022-09-10T15:20:17.860Z,16.10
2022-09-10T15:22:47.621Z,16.10
2022-09-10T15:25:29.117Z,16.00
2022-09-10T15:27:55.794Z,16.00
2022-09-10T15:30:23.802Z,16.00
2022-09-10T15:32:51.968Z,16.00
2022-09-10T15:35:31.636Z,16.00
2022-09-10T15:38:01.651Z,16.00
2022-09-10T15:40:29.703Z,16.10
2022-09-10T15:42:56.388Z,16.00
2022-09-10T15:45:23.889Z,15.90
2022-09-10T15:47:50.988Z,16.00
2022-09-10T15:50:18.173Z,15.90
2022-09-10T15:52:45.152Z,15.90
2022-09-10T15:55:15.803Z,15.90
2022-09-10T15:57:42.811Z,15.90
2022-09-10T16:00:10.224Z,15.90
2022-09-10T16:02:38.434Z,15.90
2022-09-10T16:05:06.033Z,15.90
2022-09-10T16:07:32.944Z,15.90
2022-09-10T16:09:59.582Z,15.90
2022-09-10T16:12:27.392Z,15.90
2022-09-10T16:14:54.634Z,15.90
2022-09-10T16:17:21.344Z,15.80
2022-09-10T16:19:48.102Z,15.70
2022-09-10T16:22:17.558Z,15.70
2022-09-10T16:24:48.559Z,15.70
2022-09-10T16:27:17.468Z,15.60
2022-09-10T16:29:44.552Z,15.60
2022-09-10T16:32:11.357Z,15.60
2022-09-10T16:34:38.656Z,15.60
2022-09-10T16:37:05.727Z,15.60
2022-09-10T16:39:32.464Z,15.60
2022-09-10T16:41:59.347Z,15.50
2022-09-10T16:44:26.191Z,15.50
2022-09-10T16:46:52.843Z,15.40
2022-09-10T16:49:19.637Z,15.40
2022-09-10T16:51:48.947Z,15.40
2022-09-10T16:54:19.343Z,15.30
2022-09-10T16:56:47.632Z,15.30
2022-09-10T16:59:17.757Z,15.30
2022-09-10T17:01:47.876Z,15.30
2022-09-10T17:04:19.804Z,15.30
2022-09-10T17:06:48.220Z,15.30
2022-09-10T17:09:15.166Z,15.20
2022-09-10T17:11:42.081Z,15.00
2022-09-10T17:14:08.825Z,14.90
2022-09-10T17:16:37.776Z,14.90
2022-09-10T17:19:09.100Z,14.90
2022-09-10T17:21:37.679Z,14.90
2022-09-10T17:24:06.559Z,14.90
2022-09-10T17:26:34.818Z,14.80
2022-09-10T17:29:06.993Z,14.70
2022-09-10T17:31:34.466Z,14.70
2022-09-10T17:34:01.888Z,14.80
2022-09-10T17:36:30.731Z,14.70
2022-09-10T17:39:00.686Z,14.70
2022-09-10T17:41:28.594Z,14.70
2022-09-10T17:43:55.860Z,14.80
2022-09-10T17:46:24.107Z,14.70
2022-09-10T17:48:52.045Z,14.70
2022-09-10T17:51:24.678Z,14.80
2022-09-10T17:53:53.649Z,14.80
2022-09-10T17:56:20.877Z,14.80
2022-09-10T17:58:48.689Z,14.90
2022-09-10T18:01:26.805Z,14.90
2022-09-10T18:03:54.164Z,14.90
2022-09-10T18:06:21.712Z,14.90
2022-09-10T18:08:48.844Z,14.90
2022-09-10T18:11:22.139Z,14.90
2022-09-10T18:13:52.024Z,14.90
2022-09-10T18:16:21.890Z,14.90
2022-09-10T18:18:54.038Z,14.90
2022-09-10T18:21:25.437Z,14.90
2022-09-10T18:23:54.022Z,14.80
2022-09-10T18:26:23.574Z,14.80
2022-09-10T18:29:18.969Z,14.80
2022-09-10T18:31:50.882Z,14.80
2022-09-10T18:34:23.300Z,14.80
2022-09-10T18:36:54.818Z,14.80
2022-09-10T18:39:22.627Z,14.70
2022-09-10T18:41:49.308Z,14.70
2022-09-10T18:44:21.760Z,14.70
2022-09-10T18:46:50.548Z,14.60
2022-09-10T18:49:21.362Z,14.50
2022-09-10T18:51:48.646Z,14.60
2022-09-10T18:54:17.114Z,14.60
2022-09-10T18:56:45.033Z,14.60
2022-09-10T18:59:15.050Z,14.60
2022-09-10T19:01:43.821Z,14.60
2022-09-10T19:04:13.793Z,14.70
2022-09-10T19:06:43.663Z,14.70
2022-09-10T19:09:12.862Z,14.80
2022-09-10T19:11:42.192Z,14.80
2022-09-10T19:14:16.333Z,14.80
2022-09-10T19:16:43.104Z,14.80
2022-09-10T19:19:14.164Z,14.70
2022-09-10T19:21:40.964Z,14.60
2022-09-10T19:24:07.672Z,14.60
2022-09-10T19:26:34.878Z,14.60
2022-09-10T19:29:02.312Z,14.60
2022-09-10T19:31:31.326Z,14.60
2022-09-10T19:34:00.426Z,14.60
2022-09-10T19:36:28.451Z,14.70
2022-09-10T19:38:55.257Z,14.70
2022-09-10T19:41:22.592Z,14.70
2022-09-10T19:43:51.450Z,14.70
2022-09-10T19:46:20.271Z,14.70
2022-09-10T19:48:47.761Z,14.70
2022-09-10T19:51:18.720Z,14.60
2022-09-10T19:53:45.576Z,14.70
2022-09-10T19:56:21.400Z,14.70
2022-09-10T19:58:52.764Z,14.70
2022-09-10T20:01:31.434Z,14.70
2022-09-10T20:04:01.069Z,14.70
2022-09-10T20:06:29.921Z,14.70
2022-09-10T20:08:57.615Z,14.60
2022-09-10T20:11:30.652Z,14.60
2022-09-10T20:14:00.576Z,14.60
2022-09-10T20:16:28.616Z,14.70
2022-09-10T20:18:55.852Z,14.60
2022-09-10T20:21:26.167Z,14.60
2022-09-10T20:23:55.626Z,14.70
2022-09-10T20:26:25.410Z,14.70
2022-09-10T20:28:59.782Z,14.70
2022-09-10T20:31:28.791Z,14.70
2022-09-10T20:33:58.358Z,14.60
2022-09-10T20:36:26.630Z,14.60
2022-09-10T20:38:54.353Z,14.60
2022-09-10T20:41:23.606Z,14.60
2022-09-10T20:43:51.749Z,14.50
2022-09-10T20:46:20.010Z,14.60
2022-09-10T20:48:49.289Z,14.60
2022-09-10T20:51:18.556Z,14.60
2022-09-10T20:53:47.518Z,14.60
2022-09-10T20:56:17.639Z,14.60
2022-09-10T20:58:45.772Z,14.70
2022-09-10T21:01:18.999Z,14.60
2022-09-10T21:03:47.490Z,14.60
2022-09-10T21:06:16.373Z,14.70
2022-09-10T21:08:43.247Z,14.70
2022-09-10T21:11:12.866Z,14.70
2022-09-10T21:13:45.094Z,14.70
2022-09-10T21:16:17.365Z,14.70
2022-09-10T21:18:53.604Z,14.70
2022-09-10T21:21:25.911Z,14.70
2022-09-10T21:24:00.111Z,14.70
2022-09-10T21:26:29.644Z,14.80
2022-09-10T21:29:02.354Z,14.80
2022-09-10T21:31:30.513Z,14.80
2022-09-10T21:34:02.763Z,14.80
2022-09-10T21:36:31.217Z,14.80
2022-09-10T21:39:00.351Z,14.80
2022-09-10T21:41:34.600Z,14.80
2022-09-10T21:44:05.087Z,14.80
2022-09-10T21:46:32.454Z,14.80
2022-09-10T21:49:02.226Z,14.80
2022-09-10T21:51:30.441Z,14.70
2022-09-10T21:53:59.397Z,14.70
2022-09-10T21:56:29.647Z,14.70
2022-09-10T21:58:57.904Z,14.70
2022-09-10T22:01:27.092Z,14.80
2022-09-10T22:04:00.597Z,14.70
2022-09-10T22:06:33.704Z,14.70
2022-09-10T22:09:05.270Z,14.70
2022-09-10T22:11:53.171Z,14.70
2022-09-10T22:14:22.638Z,14.70
2022-09-10T22:16:50.000Z,14.70
2022-09-10T22:19:19.622Z,14.70
2022-09-10T22:21:47.144Z,14.70
2022-09-10T22:24:15.180Z,14.70
2022-09-10T22:26:43.942Z,14.70
2022-09-10T22:29:12.629Z,14.50
2022-09-10T22:31:39.834Z,14.50
2022-09-10T22:34:13.520Z,14.60
2022-09-10T22:36:42.141Z,14.60
2022-09-10T22:39:27.083Z,14.50
2022-09-10T22:41:55.551Z,14.50
2022-09-10T22:44:23.123Z,14.50
2022-09-10T22:46:50.189Z,14.50
2022-09-10T22:49:17.160Z,14.50
2022-09-10T22:51:44.572Z,14.50
2022-09-10T22:54:13.709Z,14.50
2022-09-10T22:56:42.168Z,14.50
2022-09-10T22:59:15.018Z,14.40
2022-09-10T23:01:43.558Z,14.30
2022-09-10T23:04:12.324Z,14.30
2022-09-10T23:06:39.566Z,14.30
2022-09-10T23:09:13.610Z,14.30
2022-09-10T23:11:41.455Z,14.30
2022-09-10T23:14:13.223Z,14.30
2022-09-10T23:16:42.296Z,14.30
2022-09-10T23:19:20.000Z,14.30
2022-09-10T23:21:49.613Z,14.20
2022-09-10T23:24:18.273Z,14.20
2022-09-10T23:26:45.616Z,14.20
2022-09-10T23:29:13.006Z,14.20
2022-09-10T23:31:40.949Z,14.20
2022-09-10T23:34:11.648Z,14.20
2022-09-10T23:36:41.337Z,14.20
2022-09-10T23:39:22.893Z,14.20
2022-09-10T23:42:02.608Z,14.20
2022-09-10T23:44:29.347Z,14.20
2022-09-10T23:46:56.168Z,14.20
2022-09-10T23:49:24.190Z,14.20
2022-09-10T23:51:51.648Z,14.20
2022-09-10T23:54:18.688Z,14.20
2022-09-10T23:56:45.757Z,14.20
2022-09-10T23:59:12.777Z,14.20
